sensor_id;sensor_type;location;lat;lon;timestamp;temperature;humidity
39453;DHT22;25154;-33.684;151.102;2023-04-08T00:00:12;20.10;99.90
39453;DHT22;25154;-33.684;151.102;2023-04-08T00:05:18;20.20;99.90
39453;DHT22;25154;-33.684;151.102;2023-04-08T00:10:21;20.00;99.90
39453;DHT22;25154;-33.684;151.102;2023-04-08T00:15:24;20.30;99.90
39453;DHT22;25154;-33.684;151.102;2023-04-08T00:20:27;20.20;99.90
39453;DHT22;25154;-33.684;151.102;2023-04-08T00:25:30;20.80;99.90
39453;DHT22;25154;-33.684;151.102;2023-04-08T00:30:32;20.70;99.90
39453;DHT22;25154;-33.684;151.102;2023-04-08T00:35:35;20.70;99.90
39453;DHT22;25154;-33.684;151.102;2023-04-08T00:40:38;20.80;99.80
39453;DHT22;25154;-33.684;151.102;2023-04-08T00:45:42;20.80;99.90
39453;DHT22;25154;-33.684;151.102;2023-04-08T00:50:44;20.90;99.90
39453;DHT22;25154;-33.684;151.102;2023-04-08T00:55:48;21.00;99.90
39453;DHT22;25154;-33.684;151.102;2023-04-08T01:01:13;21.50;99.90
39453;DHT22;25154;-33.684;151.102;2023-04-08T01:06:46;21.80;99.90
39453;DHT22;25154;-33.684;151.102;2023-04-08T01:11:51;21.30;99.40
39453;DHT22;25154;-33.684;151.102;2023-04-08T01:16:56;21.70;99.50
39453;DHT22;25154;-33.684;151.102;2023-04-08T01:27:16;22.10;98.90
39453;DHT22;25154;-33.684;151.102;2023-04-08T01:32:19;22.30;98.60
39453;DHT22;25154;-33.684;151.102;2023-04-08T01:37:22;22.60;98.20
39453;DHT22;25154;-33.684;151.102;2023-04-08T01:42:27;22.50;98.90
39453;DHT22;25154;-33.684;151.102;2023-04-08T01:47:30;22.50;97.90
39453;DHT22;25154;-33.684;151.102;2023-04-08T01:52:34;22.50;98.70
39453;DHT22;25154;-33.684;151.102;2023-04-08T01:57:43;22.80;98.30
39453;DHT22;25154;-33.684;151.102;2023-04-08T02:02:46;22.70;97.30
39453;DHT22;25154;-33.684;151.102;2023-04-08T02:07:49;22.70;97.10
39453;DHT22;25154;-33.684;151.102;2023-04-08T02:12:52;23.10;97.70
39453;DHT22;25154;-33.684;151.102;2023-04-08T02:18:12;23.00;97.70
39453;DHT22;25154;-33.684;151.102;2023-04-08T02:23:20;23.10;96.80
39453;DHT22;25154;-33.684;151.102;2023-04-08T02:28:25;23.60;96.60
39453;DHT22;25154;-33.684;151.102;2023-04-08T02:33:28;23.40;95.70
39453;DHT22;25154;-33.684;151.102;2023-04-08T02:38:30;23.70;97.00
39453;DHT22;25154;-33.684;151.102;2023-04-08T02:43:33;23.20;97.80
39453;DHT22;25154;-33.684;151.102;2023-04-08T02:48:35;23.50;96.60
39453;DHT22;25154;-33.684;151.102;2023-04-08T02:53:38;23.30;96.60
39453;DHT22;25154;-33.684;151.102;2023-04-08T02:58:40;23.90;96.10
39453;DHT22;25154;-33.684;151.102;2023-04-08T03:03:42;23.50;96.90
39453;DHT22;25154;-33.684;151.102;2023-04-08T03:08:45;23.10;95.50
39453;DHT22;25154;-33.684;151.102;2023-04-08T03:13:47;23.20;95.90
39453;DHT22;25154;-33.684;151.102;2023-04-08T03:18:52;23.50;95.10
39453;DHT22;25154;-33.684;151.102;2023-04-08T03:23:55;23.60;94.70
39453;DHT22;25154;-33.684;151.102;2023-04-08T03:28:57;23.80;96.00
39453;DHT22;25154;-33.684;151.102;2023-04-08T03:33:59;24.50;94.90
39453;DHT22;25154;-33.684;151.102;2023-04-08T03:39:02;25.10;94.50
39453;DHT22;25154;-33.684;151.102;2023-04-08T03:44:04;25.70;94.30
39453;DHT22;25154;-33.684;151.102;2023-04-08T03:49:06;24.40;94.90
39453;DHT22;25154;-33.684;151.102;2023-04-08T03:54:09;24.50;95.00
39453;DHT22;25154;-33.684;151.102;2023-04-08T03:59:11;24.00;95.70
39453;DHT22;25154;-33.684;151.102;2023-04-08T04:04:14;25.70;93.70
39453;DHT22;25154;-33.684;151.102;2023-04-08T04:09:16;25.90;93.00
39453;DHT22;25154;-33.684;151.102;2023-04-08T04:14:19;25.30;92.80
39453;DHT22;25154;-33.684;151.102;2023-04-08T04:19:21;26.50;93.20
39453;DHT22;25154;-33.684;151.102;2023-04-08T04:24:23;25.10;93.00
39453;DHT22;25154;-33.684;151.102;2023-04-08T04:29:27;25.40;92.80
39453;DHT22;25154;-33.684;151.102;2023-04-08T04:34:29;26.60;91.50
39453;DHT22;25154;-33.684;151.102;2023-04-08T04:39:31;26.80;91.10
39453;DHT22;25154;-33.684;151.102;2023-04-08T04:44:34;25.80;92.20
39453;DHT22;25154;-33.684;151.102;2023-04-08T04:49:36;24.80;93.40
39453;DHT22;25154;-33.684;151.102;2023-04-08T04:54:40;25.20;92.20
39453;DHT22;25154;-33.684;151.102;2023-04-08T04:59:43;25.70;91.30
39453;DHT22;25154;-33.684;151.102;2023-04-08T05:04:45;27.30;90.30
39453;DHT22;25154;-33.684;151.102;2023-04-08T05:09:48;26.30;89.60
39453;DHT22;25154;-33.684;151.102;2023-04-08T05:14:53;26.50;90.70
39453;DHT22;25154;-33.684;151.102;2023-04-08T05:19:56;27.20;88.70
39453;DHT22;25154;-33.684;151.102;2023-04-08T05:24:58;27.80;89.90
39453;DHT22;25154;-33.684;151.102;2023-04-08T05:30:01;26.70;90.10
39453;DHT22;25154;-33.684;151.102;2023-04-08T05:35:05;27.80;88.60
39453;DHT22;25154;-33.684;151.102;2023-04-08T05:40:07;28.40;87.80
39453;DHT22;25154;-33.684;151.102;2023-04-08T05:45:10;29.60;85.60
39453;DHT22;25154;-33.684;151.102;2023-04-08T05:50:13;30.00;85.70
39453;DHT22;25154;-33.684;151.102;2023-04-08T05:55:15;30.70;84.70
39453;DHT22;25154;-33.684;151.102;2023-04-08T06:00:17;28.20;85.20
39453;DHT22;25154;-33.684;151.102;2023-04-08T06:05:20;28.20;84.60
39453;DHT22;25154;-33.684;151.102;2023-04-08T06:10:23;29.20;85.00
39453;DHT22;25154;-33.684;151.102;2023-04-08T06:15:25;32.00;84.90
39453;DHT22;25154;-33.684;151.102;2023-04-08T06:20:28;28.00;85.90
39453;DHT22;25154;-33.684;151.102;2023-04-08T06:25:31;24.90;90.70
39453;DHT22;25154;-33.684;151.102;2023-04-08T06:30:33;23.80;92.30
39453;DHT22;25154;-33.684;151.102;2023-04-08T06:35:35;25.20;90.80
39453;DHT22;25154;-33.684;151.102;2023-04-08T06:40:39;28.10;83.40
39453;DHT22;25154;-33.684;151.102;2023-04-08T06:45:41;28.70;82.50
39453;DHT22;25154;-33.684;151.102;2023-04-08T06:50:43;28.80;80.60
39453;DHT22;25154;-33.684;151.102;2023-04-08T06:55:46;27.30;83.90
39453;DHT22;25154;-33.684;151.102;2023-04-08T07:00:48;24.80;87.30
39453;DHT22;25154;-33.684;151.102;2023-04-08T07:05:52;21.80;91.90
39453;DHT22;25154;-33.684;151.102;2023-04-08T07:10:54;21.30;93.20
39453;DHT22;25154;-33.684;151.102;2023-04-08T07:15:56;20.90;93.80
39453;DHT22;25154;-33.684;151.102;2023-04-08T07:20:58;20.60;94.70
39453;DHT22;25154;-33.684;151.102;2023-04-08T07:26:04;20.30;95.40
39453;DHT22;25154;-33.684;151.102;2023-04-08T07:31:16;20.20;96.40
39453;DHT22;25154;-33.684;151.102;2023-04-08T07:36:19;20.10;96.30
39453;DHT22;25154;-33.684;151.102;2023-04-08T07:41:21;19.90;96.70
39453;DHT22;25154;-33.684;151.102;2023-04-08T07:46:24;19.80;97.60
39453;DHT22;25154;-33.684;151.102;2023-04-08T07:51:26;19.60;98.40
39453;DHT22;25154;-33.684;151.102;2023-04-08T07:56:28;19.40;99.10
39453;DHT22;25154;-33.684;151.102;2023-04-08T08:01:31;19.30;99.30
39453;DHT22;25154;-33.684;151.102;2023-04-08T08:06:35;19.40;99.40
39453;DHT22;25154;-33.684;151.102;2023-04-08T08:11:37;19.30;99.60
39453;DHT22;25154;-33.684;151.102;2023-04-08T08:16:40;19.20;99.80
39453;DHT22;25154;-33.684;151.102;2023-04-08T08:21:43;19.10;99.90
39453;DHT22;25154;-33.684;151.102;2023-04-08T08:26:45;18.90;99.90
39453;DHT22;25154;-33.684;151.102;2023-04-08T08:31:49;18.70;99.90
39453;DHT22;25154;-33.684;151.102;2023-04-08T08:36:52;18.50;99.90
39453;DHT22;25154;-33.684;151.102;2023-04-08T08:41:54;18.30;99.90
39453;DHT22;25154;-33.684;151.102;2023-04-08T08:46:57;18.30;99.90
39453;DHT22;25154;-33.684;151.102;2023-04-08T08:52:00;18.20;99.90
39453;DHT22;25154;-33.684;151.102;2023-04-08T08:57:02;18.10;99.90
39453;DHT22;25154;-33.684;151.102;2023-04-08T09:02:26;18.00;99.90
39453;DHT22;25154;-33.684;151.102;2023-04-08T09:07:30;17.90;99.90
39453;DHT22;25154;-33.684;151.102;2023-04-08T09:12:33;17.90;99.90
39453;DHT22;25154;-33.684;151.102;2023-04-08T09:17:37;17.70;99.90
39453;DHT22;25154;-33.684;151.102;2023-04-08T09:22:59;17.70;99.90
39453;DHT22;25154;-33.684;151.102;2023-04-08T09:28:01;17.60;99.90
39453;DHT22;25154;-33.684;151.102;2023-04-08T09:33:04;17.40;99.90
39453;DHT22;25154;-33.684;151.102;2023-04-08T09:38:07;17.40;99.90
39453;DHT22;25154;-33.684;151.102;2023-04-08T09:43:11;17.10;99.90
39453;DHT22;25154;-33.684;151.102;2023-04-08T09:48:20;17.20;99.90
39453;DHT22;25154;-33.684;151.102;2023-04-08T09:53:33;17.20;99.90
39453;DHT22;25154;-33.684;151.102;2023-04-08T09:58:51;17.20;99.90
39453;DHT22;25154;-33.684;151.102;2023-04-08T10:03:54;17.10;99.90
39453;DHT22;25154;-33.684;151.102;2023-04-08T10:09:01;16.90;99.90
39453;DHT22;25154;-33.684;151.102;2023-04-08T10:14:03;16.90;99.90
39453;DHT22;25154;-33.684;151.102;2023-04-08T10:35:35;15.50;99.90
39453;DHT22;25154;-33.684;151.102;2023-04-08T10:40:40;16.80;99.90
39453;DHT22;25154;-33.684;151.102;2023-04-08T10:45:44;17.00;99.90
39453;DHT22;25154;-33.684;151.102;2023-04-08T10:51:03;18.60;99.90
39453;DHT22;25154;-33.684;151.102;2023-04-08T10:56:13;17.10;99.90
39453;DHT22;25154;-33.684;151.102;2023-04-08T11:01:19;17.00;99.90
39453;DHT22;25154;-33.684;151.102;2023-04-08T11:06:22;16.90;99.90
39453;DHT22;25154;-33.684;151.102;2023-04-08T11:11:25;17.10;99.90
39453;DHT22;25154;-33.684;151.102;2023-04-08T11:16:30;16.90;99.90
39453;DHT22;25154;-33.684;151.102;2023-04-08T11:21:37;16.90;99.90
39453;DHT22;25154;-33.684;151.102;2023-04-08T11:26:39;16.70;99.90
39453;DHT22;25154;-33.684;151.102;2023-04-08T11:31:43;16.40;99.90
39453;DHT22;25154;-33.684;151.102;2023-04-08T11:36:48;16.00;99.90
39453;DHT22;25154;-33.684;151.102;2023-04-08T11:41:51;15.80;99.90
39453;DHT22;25154;-33.684;151.102;2023-04-08T11:46:54;15.70;99.90
39453;DHT22;25154;-33.684;151.102;2023-04-08T11:51:59;15.50;99.90
39453;DHT22;25154;-33.684;151.102;2023-04-08T11:57:02;15.50;99.90
39453;DHT22;25154;-33.684;151.102;2023-04-08T12:02:05;15.50;99.90
39453;DHT22;25154;-33.684;151.102;2023-04-08T12:07:08;15.50;99.90
39453;DHT22;25154;-33.684;151.102;2023-04-08T12:12:12;15.60;99.90
39453;DHT22;25154;-33.684;151.102;2023-04-08T12:17:24;15.50;99.90
39453;DHT22;25154;-33.684;151.102;2023-04-08T12:22:27;15.60;99.90
39453;DHT22;25154;-33.684;151.102;2023-04-08T12:32:41;15.50;99.90
39453;DHT22;25154;-33.684;151.102;2023-04-08T12:37:46;15.30;99.90
39453;DHT22;25154;-33.684;151.102;2023-04-08T12:42:51;15.20;99.90
39453;DHT22;25154;-33.684;151.102;2023-04-08T12:47:55;15.00;99.90
39453;DHT22;25154;-33.684;151.102;2023-04-08T12:52:59;15.00;99.90
39453;DHT22;25154;-33.684;151.102;2023-04-08T12:58:01;15.00;99.90
39453;DHT22;25154;-33.684;151.102;2023-04-08T13:03:04;15.00;99.90
39453;DHT22;25154;-33.684;151.102;2023-04-08T13:08:07;15.00;99.90
39453;DHT22;25154;-33.684;151.102;2023-04-08T13:13:10;15.00;99.90
39453;DHT22;25154;-33.684;151.102;2023-04-08T13:18:14;14.90;99.90
39453;DHT22;25154;-33.684;151.102;2023-04-08T13:23:17;15.00;99.90
39453;DHT22;25154;-33.684;151.102;2023-04-08T13:28:20;13.80;99.90
39453;DHT22;25154;-33.684;151.102;2023-04-08T13:33:25;14.80;99.90
39453;DHT22;25154;-33.684;151.102;2023-04-08T13:38:28;14.80;99.90
39453;DHT22;25154;-33.684;151.102;2023-04-08T13:43:30;14.70;99.90
39453;DHT22;25154;-33.684;151.102;2023-04-08T13:48:32;15.00;99.90
39453;DHT22;25154;-33.684;151.102;2023-04-08T13:53:35;14.90;99.90
39453;DHT22;25154;-33.684;151.102;2023-04-08T13:58:37;15.00;99.90
39453;DHT22;25154;-33.684;151.102;2023-04-08T14:03:44;15.10;99.90
39453;DHT22;25154;-33.684;151.102;2023-04-08T14:08:46;15.40;99.90
39453;DHT22;25154;-33.684;151.102;2023-04-08T14:13:49;15.20;99.90
39453;DHT22;25154;-33.684;151.102;2023-04-08T14:18:51;15.00;99.90
39453;DHT22;25154;-33.684;151.102;2023-04-08T14:23:53;15.00;99.90
39453;DHT22;25154;-33.684;151.102;2023-04-08T14:28:56;15.00;99.90
39453;DHT22;25154;-33.684;151.102;2023-04-08T14:33:59;15.20;99.90
39453;DHT22;25154;-33.684;151.102;2023-04-08T14:39:03;15.20;99.90
39453;DHT22;25154;-33.684;151.102;2023-04-08T14:44:05;15.20;99.90
39453;DHT22;25154;-33.684;151.102;2023-04-08T14:49:08;15.40;99.90
39453;DHT22;25154;-33.684;151.102;2023-04-08T14:54:10;15.30;99.90
39453;DHT22;25154;-33.684;151.102;2023-04-08T14:59:14;15.30;99.90
39453;DHT22;25154;-33.684;151.102;2023-04-08T15:04:17;15.10;99.90
39453;DHT22;25154;-33.684;151.102;2023-04-08T15:09:19;15.00;99.90
39453;DHT22;25154;-33.684;151.102;2023-04-08T15:14:22;15.10;99.90
39453;DHT22;25154;-33.684;151.102;2023-04-08T15:19:24;14.60;99.90
39453;DHT22;25154;-33.684;151.102;2023-04-08T15:24:28;15.50;99.90
39453;DHT22;25154;-33.684;151.102;2023-04-08T15:29:30;15.20;99.90
39453;DHT22;25154;-33.684;151.102;2023-04-08T15:34:33;15.30;99.90
39453;DHT22;25154;-33.684;151.102;2023-04-08T15:39:35;15.20;99.90
39453;DHT22;25154;-33.684;151.102;2023-04-08T15:44:37;15.20;99.90
39453;DHT22;25154;-33.684;151.102;2023-04-08T15:49:40;15.10;99.90
39453;DHT22;25154;-33.684;151.102;2023-04-08T15:54:42;15.10;99.90
39453;DHT22;25154;-33.684;151.102;2023-04-08T15:59:44;14.80;99.90
39453;DHT22;25154;-33.684;151.102;2023-04-08T16:04:47;14.90;99.90
39453;DHT22;25154;-33.684;151.102;2023-04-08T16:09:49;14.70;99.90
39453;DHT22;25154;-33.684;151.102;2023-04-08T16:14:51;14.70;99.90
39453;DHT22;25154;-33.684;151.102;2023-04-08T16:19:55;14.60;99.90
39453;DHT22;25154;-33.684;151.102;2023-04-08T16:24:57;13.50;99.90
39453;DHT22;25154;-33.684;151.102;2023-04-08T16:30:00;14.10;99.90
39453;DHT22;25154;-33.684;151.102;2023-04-08T16:35:02;13.80;99.90
39453;DHT22;25154;-33.684;151.102;2023-04-08T16:40:05;13.90;99.90
39453;DHT22;25154;-33.684;151.102;2023-04-08T16:45:08;13.80;99.90
39453;DHT22;25154;-33.684;151.102;2023-04-08T16:50:11;13.70;99.90
39453;DHT22;25154;-33.684;151.102;2023-04-08T16:55:16;13.60;99.90
39453;DHT22;25154;-33.684;151.102;2023-04-08T17:00:19;13.60;99.90
39453;DHT22;25154;-33.684;151.102;2023-04-08T17:05:23;13.60;99.90
39453;DHT22;25154;-33.684;151.102;2023-04-08T17:10:26;13.70;99.90
39453;DHT22;25154;-33.684;151.102;2023-04-08T17:15:28;13.50;99.90
39453;DHT22;25154;-33.684;151.102;2023-04-08T17:20:31;13.40;99.90
39453;DHT22;25154;-33.684;151.102;2023-04-08T17:25:34;13.20;99.90
39453;DHT22;25154;-33.684;151.102;2023-04-08T17:30:36;13.00;99.90
39453;DHT22;25154;-33.684;151.102;2023-04-08T17:35:41;11.90;99.90
39453;DHT22;25154;-33.684;151.102;2023-04-08T17:40:44;12.80;99.90
39453;DHT22;25154;-33.684;151.102;2023-04-08T17:45:47;12.80;99.90
39453;DHT22;25154;-33.684;151.102;2023-04-08T17:51:01;12.00;99.90
39453;DHT22;25154;-33.684;151.102;2023-04-08T17:56:04;12.10;99.90
39453;DHT22;25154;-33.684;151.102;2023-04-08T18:01:07;11.70;99.90
39453;DHT22;25154;-33.684;151.102;2023-04-08T18:06:10;11.40;99.90
39453;DHT22;25154;-33.684;151.102;2023-04-08T18:11:12;11.40;99.90
39453;DHT22;25154;-33.684;151.102;2023-04-08T18:16:16;11.60;99.90
39453;DHT22;25154;-33.684;151.102;2023-04-08T18:21:19;11.60;99.90
39453;DHT22;25154;-33.684;151.102;2023-04-08T18:26:22;11.70;99.90
39453;DHT22;25154;-33.684;151.102;2023-04-08T18:31:25;11.50;99.90
39453;DHT22;25154;-33.684;151.102;2023-04-08T18:36:28;11.10;99.90
39453;DHT22;25154;-33.684;151.102;2023-04-08T18:41:30;11.30;99.90
39453;DHT22;25154;-33.684;151.102;2023-04-08T18:46:33;11.20;99.90
39453;DHT22;25154;-33.684;151.102;2023-04-08T18:51:36;11.00;99.90
39453;DHT22;25154;-33.684;151.102;2023-04-08T18:56:39;10.80;99.90
39453;DHT22;25154;-33.684;151.102;2023-04-08T19:01:42;10.80;99.90
39453;DHT22;25154;-33.684;151.102;2023-04-08T19:06:45;10.70;99.90
39453;DHT22;25154;-33.684;151.102;2023-04-08T19:11:48;10.60;99.90
39453;DHT22;25154;-33.684;151.102;2023-04-08T19:16:51;10.80;99.90
39453;DHT22;25154;-33.684;151.102;2023-04-08T19:21:53;10.70;99.90
39453;DHT22;25154;-33.684;151.102;2023-04-08T19:26:56;10.80;99.90
39453;DHT22;25154;-33.684;151.102;2023-04-08T19:31:59;10.60;99.90
39453;DHT22;25154;-33.684;151.102;2023-04-08T19:42:04;10.70;99.90
39453;DHT22;25154;-33.684;151.102;2023-04-08T19:47:07;10.70;99.90
39453;DHT22;25154;-33.684;151.102;2023-04-08T19:52:10;10.70;99.90
39453;DHT22;25154;-33.684;151.102;2023-04-08T19:57:13;10.70;99.90
39453;DHT22;25154;-33.684;151.102;2023-04-08T20:02:16;10.60;99.90
39453;DHT22;25154;-33.684;151.102;2023-04-08T20:07:19;10.50;99.90
39453;DHT22;25154;-33.684;151.102;2023-04-08T20:12:21;10.50;99.90
39453;DHT22;25154;-33.684;151.102;2023-04-08T20:17:24;10.40;99.90
39453;DHT22;25154;-33.684;151.102;2023-04-08T20:22:28;10.50;99.90
39453;DHT22;25154;-33.684;151.102;2023-04-08T20:27:31;10.50;99.90
39453;DHT22;25154;-33.684;151.102;2023-04-08T20:32:34;10.50;99.90
39453;DHT22;25154;-33.684;151.102;2023-04-08T20:37:37;10.70;99.90
39453;DHT22;25154;-33.684;151.102;2023-04-08T20:42:40;10.70;99.90
39453;DHT22;25154;-33.684;151.102;2023-04-08T20:47:43;10.60;99.90
39453;DHT22;25154;-33.684;151.102;2023-04-08T20:52:46;10.80;99.90
39453;DHT22;25154;-33.684;151.102;2023-04-08T20:57:49;11.00;99.90
39453;DHT22;25154;-33.684;151.102;2023-04-08T21:02:52;11.00;99.90
39453;DHT22;25154;-33.684;151.102;2023-04-08T21:07:55;11.20;99.90
39453;DHT22;25154;-33.684;151.102;2023-04-08T21:12:57;11.30;99.90
39453;DHT22;25154;-33.684;151.102;2023-04-08T21:18:01;11.50;99.90
39453;DHT22;25154;-33.684;151.102;2023-04-08T21:23:08;11.80;99.90
39453;DHT22;25154;-33.684;151.102;2023-04-08T21:28:10;12.20;99.90
39453;DHT22;25154;-33.684;151.102;2023-04-08T21:33:13;12.50;99.90
39453;DHT22;25154;-33.684;151.102;2023-04-08T21:38:16;12.80;99.90
39453;DHT22;25154;-33.684;151.102;2023-04-08T21:43:19;13.10;99.90
39453;DHT22;25154;-33.684;151.102;2023-04-08T21:48:22;13.40;99.90
39453;DHT22;25154;-33.684;151.102;2023-04-08T21:53:25;13.40;99.90
39453;DHT22;25154;-33.684;151.102;2023-04-08T21:58:28;13.80;99.90
39453;DHT22;25154;-33.684;151.102;2023-04-08T22:03:31;14.40;99.90
39453;DHT22;25154;-33.684;151.102;2023-04-08T22:08:34;14.80;99.90
39453;DHT22;25154;-33.684;151.102;2023-04-08T22:13:37;15.00;99.90
39453;DHT22;25154;-33.684;151.102;2023-04-08T22:18:39;15.30;99.90
39453;DHT22;25154;-33.684;151.102;2023-04-08T22:23:42;15.50;99.90
39453;DHT22;25154;-33.684;151.102;2023-04-08T22:28:45;17.10;99.90
39453;DHT22;25154;-33.684;151.102;2023-04-08T22:33:47;15.80;99.90
39453;DHT22;25154;-33.684;151.102;2023-04-08T22:38:50;16.10;99.90
39453;DHT22;25154;-33.684;151.102;2023-04-08T22:43:53;16.30;99.90
39453;DHT22;25154;-33.684;151.102;2023-04-08T22:48:56;16.30;99.90
39453;DHT22;25154;-33.684;151.102;2023-04-08T22:53:59;16.30;99.90
39453;DHT22;25154;-33.684;151.102;2023-04-08T22:59:02;16.50;99.90
39453;DHT22;25154;-33.684;151.102;2023-04-08T23:04:04;16.90;99.90
39453;DHT22;25154;-33.684;151.102;2023-04-08T23:09:07;16.80;99.90
39453;DHT22;25154;-33.684;151.102;2023-04-08T23:14:10;17.00;99.90
39453;DHT22;25154;-33.684;151.102;2023-04-08T23:19:13;17.00;99.90
39453;DHT22;25154;-33.684;151.102;2023-04-08T23:24:16;16.90;99.90
39453;DHT22;25154;-33.684;151.102;2023-04-08T23:29:19;17.20;99.90
39453;DHT22;25154;-33.684;151.102;2023-04-08T23:34:22;17.10;99.90
39453;DHT22;25154;-33.684;151.102;2023-04-08T23:39:25;19.10;99.90
39453;DHT22;25154;-33.684;151.102;2023-04-08T23:44:27;17.40;99.90
39453;DHT22;25154;-33.684;151.102;2023-04-08T23:49:30;17.20;99.90
39453;DHT22;25154;-33.684;151.102;2023-04-08T23:54:33;17.10;99.90
39453;DHT22;25154;-33.684;151.102;2023-04-08T23:59:36;17.50;99.90
